Time;durP1;ratioP1;P1;durP2;ratioP2;P2;SDS_P1;SDS_P2;PMS_P1;PMS_P2;Temp;Humidity;BMP_temperature;BMP_pressure;BME280_temperature;BME280_humidity;BME280_pressure;Samples;Min_cycle;Max_cycle;Signal;HPM_P1;HPM_P2
2021/04/20 00:00:08;;;;;;;9.43;8.53;;;10.90;82.80;;;;;;5065492;28;21045;-52
2021/04/20 00:02:35;;;;;;;9.47;8.57;;;10.80;82.60;;;;;;5050546;28;20667;-52
2021/04/20 00:05:03;;;;;;;9.17;8.30;;;10.80;83.00;;;;;;5050880;28;20641;-52
2021/04/20 00:07:30;;;;;;;10.77;9.77;;;10.80;83.00;;;;;;5064775;28;21036;-52
2021/04/20 00:09:56;;;;;;;9.90;8.90;;;10.80;82.90;;;;;;5070273;28;20936;-52
2021/04/20 00:12:23;;;;;;;9.97;9.07;;;10.80;83.30;;;;;;5070744;28;20657;-52
2021/04/20 00:14:51;;;;;;;11.07;10.03;;;10.70;83.20;;;;;;5070922;28;20626;-51
2021/04/20 00:17:18;;;;;;;10.67;9.70;;;10.70;83.50;;;;;;5070144;28;20633;-51
2021/04/20 00:19:44;;;;;;;9.50;8.60;;;10.60;83.80;;;;;;5070881;28;21215;-51
2021/04/20 00:22:11;;;;;;;9.23;8.33;;;10.60;84.20;;;;;;5069892;28;20715;-51
2021/04/20 00:24:38;;;;;;;10.83;9.83;;;10.60;84.40;;;;;;5070765;28;20876;-52
2021/04/20 00:27:05;;;;;;;8.70;7.90;;;10.70;84.30;;;;;;5070259;28;21192;-51
2021/04/20 00:29:32;;;;;;;10.20;9.20;;;10.70;83.90;;;;;;5053809;28;21205;-51
2021/04/20 00:31:59;;;;;;;12.00;10.83;;;10.70;83.60;;;;;;5052292;28;20711;-51
2021/04/20 00:34:26;;;;;;;9.33;8.50;;;10.60;83.60;;;;;;5062316;28;20628;-51
2021/04/20 00:36:53;;;;;;;11.03;10.10;;;10.60;83.70;;;;;;5073699;28;21035;-51
2021/04/20 00:39:19;;;;;;;9.53;8.63;;;10.60;83.70;;;;;;5073521;28;21239;-52
2021/04/20 00:41:46;;;;;;;9.93;8.93;;;10.50;84.40;;;;;;5056225;28;20653;-51
2021/04/20 00:44:13;;;;;;;10.30;9.10;;;10.50;83.60;;;;;;5071724;28;20652;-52
2021/04/20 00:46:39;;;;;;;9.53;8.53;;;10.50;83.90;;;;;;5073298;28;20652;-51
2021/04/20 00:49:07;;;;;;;9.33;8.47;;;10.40;84.10;;;;;;5073455;28;20654;-50
2021/04/20 00:51:34;;;;;;;10.23;9.17;;;10.40;84.10;;;;;;5073581;28;20711;-51
2021/04/20 00:54:01;;;;;;;9.47;8.57;;;10.40;84.00;;;;;;5073214;28;20610;-51
2021/04/20 00:56:27;;;;;;;12.13;9.60;;;10.40;84.10;;;;;;5073109;28;20625;-51
2021/04/20 00:58:54;;;;;;;8.60;7.73;;;10.30;84.00;;;;;;5072682;28;20633;-52
2021/04/20 01:01:21;;;;;;;9.93;8.93;;;10.30;84.20;;;;;;5073508;28;20718;-51
2021/04/20 01:03:47;;;;;;;7.70;7.00;;;10.30;84.20;;;;;;5073845;28;21017;-51
2021/04/20 01:06:15;;;;;;;9.07;8.27;;;10.30;84.60;;;;;;5076388;28;20652;-51
2021/04/20 01:08:42;;;;;;;9.20;8.40;;;10.30;84.80;;;;;;5077888;28;20644;-51
2021/04/20 01:11:08;;;;;;;9.87;8.87;;;10.30;84.70;;;;;;5073261;28;21061;-51
2021/04/20 01:13:35;;;;;;;10.70;9.70;;;10.30;84.40;;;;;;5073327;28;20690;-52
2021/04/20 01:16:02;;;;;;;9.40;8.50;;;10.30;84.30;;;;;;5072600;28;20621;-51
2021/04/20 01:18:29;;;;;;;9.07;8.17;;;10.30;84.50;;;;;;5072763;28;20633;-51
2021/04/20 01:20:58;;;;;;;8.60;7.80;;;10.30;84.40;;;;;;5072938;28;20682;-52
2021/04/20 01:23:30;;;;;;;9.63;8.73;;;10.30;84.30;;;;;;5072526;28;20625;-51
2021/04/20 01:25:57;;;;;;;9.10;8.20;;;10.30;84.10;;;;;;5072632;28;21278;-51
2021/04/20 01:28:25;;;;;;;9.23;8.43;;;10.30;84.30;;;;;;5073096;28;20665;-52
2021/04/20 01:30:51;;;;;;;9.73;8.83;;;10.30;84.30;;;;;;5072554;28;20661;-51
2021/04/20 01:33:18;;;;;;;10.13;8.60;;;10.30;84.40;;;;;;5072799;28;20632;-51
2021/04/20 01:35:45;;;;;;;11.30;9.90;;;10.30;84.30;;;;;;5072309;28;20625;-50
2021/04/20 01:38:11;;;;;;;9.90;9.00;;;10.30;84.50;;;;;;5053463;28;21192;-51
2021/04/20 01:40:38;;;;;;;11.20;10.10;;;10.30;84.90;;;;;;5072690;28;20657;-51
2021/04/20 01:43:07;;;;;;;9.80;8.80;;;10.30;85.20;;;;;;5072102;28;21312;-51
2021/04/20 01:45:33;;;;;;;11.50;10.30;;;10.30;85.10;;;;;;5072348;28;20629;-52
2021/04/20 01:48:00;;;;;;;11.80;10.60;;;10.30;85.40;;;;;;5072054;28;20675;-51
2021/04/20 01:50:27;;;;;;;9.43;8.43;;;10.30;84.60;;;;;;5072785;28;20628;-51
2021/04/20 01:52:54;;;;;;;10.70;9.50;;;10.20;84.20;;;;;;5072780;28;20990;-51
2021/04/20 01:55:21;;;;;;;10.97;9.87;;;10.20;83.80;;;;;;5073654;28;20621;-51
2021/04/20 01:57:49;;;;;;;10.90;9.77;;;10.10;83.90;;;;;;5070464;28;20687;-51
2021/04/20 02:00:18;;;;;;;10.03;7.80;;;10.10;84.10;;;;;;5062085;28;20640;-51
2021/04/20 02:02:45;;;;;;;9.10;8.30;;;10.10;84.20;;;;;;5072732;28;20639;-51
2021/04/20 02:05:12;;;;;;;10.63;8.97;;;10.00;84.30;;;;;;5072869;28;20621;-51
2021/04/20 02:07:39;;;;;;;9.07;8.33;;;10.00;84.40;;;;;;5071964;28;20649;-50
2021/04/20 02:10:07;;;;;;;9.23;8.43;;;10.00;84.80;;;;;;5072790;28;20686;-51
2021/04/20 02:12:35;;;;;;;9.90;9.00;;;10.00;84.90;;;;;;5072429;28;20645;-51
2021/04/20 02:15:02;;;;;;;9.67;8.73;;;10.00;84.50;;;;;;5071726;28;21251;-50
2021/04/20 02:17:30;;;;;;;10.60;9.60;;;10.00;84.40;;;;;;5071960;28;20659;-51
2021/04/20 02:19:56;;;;;;;10.30;9.20;;;9.80;85.70;;;;;;5072108;28;20675;-50
2021/04/20 02:22:23;;;;;;;10.80;8.60;;;9.80;86.20;;;;;;5055900;28;20662;-51
2021/04/20 02:24:50;;;;;;;9.07;8.20;;;9.80;86.80;;;;;;5052171;28;20622;-50
2021/04/20 02:27:17;;;;;;;10.27;9.27;;;9.80;87.00;;;;;;5055034;28;20649;-50
2021/04/20 02:29:43;;;;;;;10.87;9.30;;;9.70;86.90;;;;;;5071557;28;20617;-51
2021/04/20 02:32:10;;;;;;;10.47;9.47;;;9.70;87.40;;;;;;5071031;28;20665;-52
2021/04/20 02:34:38;;;;;;;10.90;9.70;;;9.60;87.80;;;;;;5071701;28;20702;-51
2021/04/20 02:37:04;;;;;;;11.20;9.77;;;9.60;88.00;;;;;;5071414;28;20654;-51
2021/04/20 02:39:31;;;;;;;11.53;10.50;;;9.60;88.10;;;;;;5071471;28;20629;-51
2021/04/20 02:41:58;;;;;;;12.60;11.40;;;9.60;88.10;;;;;;5071461;28;20661;-51
2021/04/20 02:44:24;;;;;;;14.23;12.27;;;9.60;88.20;;;;;;5071153;28;20681;-51
2021/04/20 02:46:51;;;;;;;12.20;10.10;;;9.60;88.40;;;;;;5071647;28;21237;-51
2021/04/20 02:49:18;;;;;;;12.10;10.30;;;9.60;88.50;;;;;;5071044;28;20661;-51
2021/04/20 02:51:45;;;;;;;13.83;11.60;;;9.60;88.90;;;;;;5071858;28;20665;-51
2021/04/20 02:54:12;;;;;;;11.27;10.17;;;9.60;88.90;;;;;;5063865;28;20660;-50
2021/04/20 02:56:39;;;;;;;15.53;12.10;;;9.60;88.90;;;;;;5051843;28;20688;-51
2021/04/20 02:59:07;;;;;;;12.73;11.43;;;9.70;88.60;;;;;;5060022;28;21185;-50
2021/04/20 03:01:35;;;;;;;13.63;12.00;;;9.70;88.30;;;;;;5071065;28;20663;-51
2021/04/20 03:04:02;;;;;;;12.53;10.83;;;9.70;88.40;;;;;;5071370;28;21275;-50
2021/04/20 03:06:29;;;;;;;13.33;12.03;;;9.70;88.10;;;;;;5071690;28;20664;-51
2021/04/20 03:08:57;;;;;;;13.40;12.00;;;9.80;87.80;;;;;;5070745;28;20625;-51
2021/04/20 03:11:27;;;;;;;14.03;11.60;;;9.80;87.40;;;;;;5071240;28;20731;-51
2021/04/20 03:13:54;;;;;;;13.23;11.93;;;9.70;87.40;;;;;;5071318;28;20649;-51
2021/04/20 03:16:20;;;;;;;13.07;11.57;;;9.70;87.40;;;;;;5070169;28;20667;-51
2021/04/20 03:18:48;;;;;;;12.70;11.50;;;9.70;87.60;;;;;;5070945;28;20625;-51
2021/04/20 03:21:15;;;;;;;16.83;12.30;;;9.60;87.70;;;;;;5056949;28;20658;-51
2021/04/20 03:23:42;;;;;;;12.70;11.43;;;9.60;88.00;;;;;;5051414;28;20684;-51
2021/04/20 03:26:38;;;;;;;12.00;10.70;;;9.60;88.10;;;;;;5051216;28;20723;-50
2021/04/20 03:29:07;;;;;;;14.77;12.20;;;9.60;87.50;;;;;;5051480;28;20633;-52
2021/04/20 03:31:36;;;;;;;12.87;11.57;;;9.60;87.80;;;;;;5059253;28;21074;-53
2021/04/20 03:34:06;;;;;;;13.80;12.03;;;9.60;87.60;;;;;;5070770;28;20675;-53
2021/04/20 03:36:35;;;;;;;13.40;11.73;;;9.60;88.00;;;;;;5070733;28;20636;-53
2021/04/20 03:39:04;;;;;;;13.30;11.60;;;9.60;87.60;;;;;;5070889;28;20628;-53
2021/04/20 03:41:34;;;;;;;12.73;11.33;;;9.60;87.70;;;;;;5052707;28;20659;-53
2021/04/20 03:44:01;;;;;;;13.57;11.80;;;9.60;88.10;;;;;;5070523;28;20626;-53
2021/04/20 03:46:30;;;;;;;13.80;12.30;;;9.60;88.30;;;;;;5070675;28;20653;-53
2021/04/20 03:48:58;;;;;;;16.80;14.33;;;9.60;88.10;;;;;;5069938;28;20637;-53
2021/04/20 03:51:26;;;;;;;14.10;12.63;;;9.60;88.10;;;;;;5071072;28;20706;-53
2021/04/20 03:53:54;;;;;;;14.60;12.57;;;9.60;88.20;;;;;;5071167;28;20675;-53
2021/04/20 03:56:23;;;;;;;13.20;11.80;;;9.60;88.40;;;;;;5070632;28;20671;-53
2021/04/20 03:58:51;;;;;;;14.57;12.93;;;9.60;88.40;;;;;;5070696;28;20687;-53
2021/04/20 04:01:18;;;;;;;13.37;12.07;;;9.60;87.60;;;;;;5070530;28;20649;-54
2021/04/20 04:03:44;;;;;;;13.00;11.23;;;9.60;87.20;;;;;;5070529;28;21181;-53
2021/04/20 04:06:11;;;;;;;17.33;14.87;;;9.60;87.60;;;;;;5071307;28;20655;-53
2021/04/20 04:08:38;;;;;;;13.90;12.53;;;9.70;87.70;;;;;;5074115;28;20628;-53
2021/04/20 04:11:05;;;;;;;20.23;15.13;;;9.70;87.50;;;;;;5074277;28;20706;-53
2021/04/20 04:13:32;;;;;;;17.80;15.10;;;9.80;87.60;;;;;;5074131;28;20628;-53
2021/04/20 04:16:01;;;;;;;18.77;15.80;;;9.80;87.30;;;;;;5073454;28;20701;-53
2021/04/20 04:18:29;;;;;;;17.60;15.73;;;9.80;86.80;;;;;;5073321;28;20629;-53
2021/04/20 04:20:58;;;;;;;18.53;14.80;;;9.80;87.10;;;;;;5074176;28;20656;-53
2021/04/20 04:23:25;;;;;;;19.13;17.20;;;9.70;87.30;;;;;;5074119;28;20660;-53
2021/04/20 04:25:55;;;;;;;17.23;14.80;;;9.80;88.00;;;;;;5073750;28;21274;-53
2021/04/20 04:28:22;;;;;;;19.00;15.67;;;9.80;88.00;;;;;;5073747;28;20959;-53
2021/04/20 04:30:49;;;;;;;20.83;17.50;;;9.80;87.90;;;;;;5073868;28;20652;-53
2021/04/20 04:33:17;;;;;;;20.00;16.07;;;9.80;88.70;;;;;;5088538;28;20937;-53
2021/04/20 04:35:44;;;;;;;19.77;17.63;;;9.70;87.80;;;;;;5093000;28;20616;-53
2021/04/20 04:38:11;;;;;;;20.57;18.47;;;9.80;88.70;;;;;;5093822;28;20651;-53
2021/04/20 04:40:38;;;;;;;19.90;17.80;;;9.70;87.70;;;;;;5094177;28;21220;-54
2021/04/20 04:43:04;;;;;;;22.30;16.93;;;9.70;88.10;;;;;;5083502;28;20629;-53
2021/04/20 04:45:31;;;;;;;21.00;17.57;;;9.70;88.30;;;;;;5073599;28;20633;-53
2021/04/20 04:47:58;;;;;;;18.30;16.40;;;9.70;88.30;;;;;;5072568;28;20736;-54
2021/04/20 04:50:25;;;;;;;19.97;17.87;;;9.70;88.50;;;;;;5073686;28;20702;-53
2021/04/20 04:52:52;;;;;;;20.37;16.70;;;9.70;88.70;;;;;;5073791;28;20698;-53
2021/04/20 04:55:19;;;;;;;19.00;16.70;;;9.70;88.70;;;;;;5073614;28;20670;-53
2021/04/20 04:57:47;;;;;;;18.90;16.43;;;9.70;88.70;;;;;;5073178;28;20632;-53
2021/04/20 05:00:14;;;;;;;19.40;17.30;;;9.60;88.50;;;;;;5073273;28;20651;-53
2021/04/20 05:02:41;;;;;;;19.50;15.77;;;9.60;88.30;;;;;;5073167;28;20677;-53
2021/04/20 05:05:09;;;;;;;17.73;15.80;;;9.70;88.90;;;;;;5073282;28;20686;-53
2021/04/20 05:07:36;;;;;;;19.13;17.10;;;9.60;88.80;;;;;;5072433;28;20656;-53
2021/04/20 05:10:04;;;;;;;20.50;15.63;;;9.70;88.80;;;;;;5071934;28;20790;-53
2021/04/20 05:12:31;;;;;;;19.20;16.47;;;9.70;88.80;;;;;;5071997;28;20649;-53
2021/04/20 05:15:04;;;;;;;18.90;16.90;;;9.70;89.00;;;;;;5072754;28;20636;-53
2021/04/20 05:17:31;;;;;;;19.40;16.33;;;9.70;88.80;;;;;;5067933;28;20613;-52
2021/04/20 05:19:58;;;;;;;19.13;16.23;;;9.70;88.70;;;;;;5071489;28;20682;-53
2021/04/20 05:22:24;;;;;;;21.43;16.97;;;9.70;88.60;;;;;;5070712;28;20656;-52
2021/04/20 05:24:52;;;;;;;20.97;17.17;;;9.80;88.80;;;;;;5070858;28;20632;-52
2021/04/20 05:27:19;;;;;;;23.30;17.20;;;9.70;88.80;;;;;;5071365;28;20707;-52
2021/04/20 05:29:46;;;;;;;18.60;15.67;;;9.80;89.10;;;;;;5072190;28;20613;-52
2021/04/20 05:32:13;;;;;;;29.10;18.03;;;9.80;89.50;;;;;;5068565;28;20710;-52
2021/04/20 05:34:39;;;;;;;23.77;18.33;;;9.80;89.40;;;;;;5062930;28;20622;-52
2021/04/20 05:37:06;;;;;;;23.80;20.00;;;9.90;89.50;;;;;;5069608;28;20697;-52
2021/04/20 05:39:33;;;;;;;28.63;22.33;;;9.90;89.40;;;;;;5071068;28;20625;-53
2021/04/20 05:42:01;;;;;;;24.10;20.30;;;10.00;88.20;;;;;;5071848;28;21058;-50
2021/04/20 05:44:31;;;;;;;23.97;19.27;;;9.90;89.30;;;;;;5071900;28;20663;-52
2021/04/20 05:46:58;;;;;;;26.43;20.27;;;10.00;88.70;;;;;;5071254;28;20649;-50
2021/04/20 05:49:25;;;;;;;28.03;20.40;;;10.00;89.20;;;;;;5071735;28;20674;-50
2021/04/20 05:51:52;;;;;;;24.77;19.70;;;10.10;89.20;;;;;;5071510;28;21039;-50
2021/04/20 05:54:19;;;;;;;24.80;19.87;;;10.10;89.40;;;;;;5072161;28;20684;-52
2021/04/20 05:56:45;;;;;;;23.23;19.07;;;10.20;89.60;;;;;;5071594;28;20625;-52
2021/04/20 05:59:15;;;;;;;29.03;19.50;;;10.20;89.70;;;;;;5070604;28;20656;-52
2021/04/20 06:01:42;;;;;;;24.17;19.23;;;10.30;89.70;;;;;;5070376;28;20957;-53
2021/04/20 06:04:09;;;;;;;19.87;17.67;;;10.40;89.60;;;;;;5071435;28;20630;-52
2021/04/20 06:06:36;;;;;;;28.87;20.23;;;10.40;89.30;;;;;;5064612;28;20752;-52
2021/04/20 06:09:03;;;;;;;25.93;22.07;;;10.40;89.20;;;;;;5070751;28;20621;-52
2021/04/20 06:11:30;;;;;;;27.77;20.03;;;10.50;88.90;;;;;;5069551;28;20703;-52
2021/04/20 06:13:57;;;;;;;25.97;21.63;;;10.50;89.20;;;;;;5071155;28;20629;-52
2021/04/20 06:16:25;;;;;;;22.93;20.70;;;10.50;89.30;;;;;;5070932;28;20625;-52
2021/04/20 06:18:51;;;;;;;23.67;19.70;;;10.50;89.30;;;;;;5070834;28;20625;-52
2021/04/20 06:21:18;;;;;;;22.93;20.60;;;10.60;89.50;;;;;;5069710;28;20653;-52
2021/04/20 06:23:45;;;;;;;22.13;19.93;;;10.60;89.50;;;;;;5070987;28;21007;-52
2021/04/20 06:26:12;;;;;;;23.30;20.27;;;10.70;89.60;;;;;;5071278;28;20725;-52
2021/04/20 06:28:39;;;;;;;24.33;20.07;;;10.70;89.70;;;;;;5070806;28;20718;-52
2021/04/20 06:31:07;;;;;;;22.67;20.37;;;10.80;89.80;;;;;;5069959;28;21015;-52
2021/04/20 06:33:36;;;;;;;21.07;18.97;;;10.90;89.80;;;;;;5069480;28;20626;-52
2021/04/20 06:36:03;;;;;;;23.00;20.73;;;11.00;89.70;;;;;;5068998;28;20651;-52
2021/04/20 06:38:30;;;;;;;21.03;18.83;;;11.10;89.60;;;;;;5070362;28;20636;-52
2021/04/20 06:40:57;;;;;;;23.23;20.93;;;11.30;89.80;;;;;;5070159;28;20648;-52
2021/04/20 06:43:26;;;;;;;20.97;18.97;;;11.40;89.40;;;;;;5059445;28;20636;-52
2021/04/20 06:45:54;;;;;;;21.70;19.63;;;11.50;88.80;;;;;;5070252;28;20659;-56
2021/04/20 06:48:25;;;;;;;21.13;19.03;;;11.60;88.00;;;;;;5070197;28;20660;-52
2021/04/20 06:50:56;;;;;;;21.30;18.80;;;11.80;87.90;;;;;;5071004;28;20851;-52
2021/04/20 06:53:26;;;;;;;21.03;18.93;;;11.90;87.10;;;;;;5070370;28;21243;-52
2021/04/20 06:56:14;;;;;;;22.73;20.40;;;12.00;86.60;;;;;;5070686;28;21048;-52
2021/04/20 06:58:46;;;;;;;22.47;20.13;;;12.10;86.60;;;;;;5070661;28;20763;-52
2021/04/20 07:01:16;;;;;;;21.67;19.37;;;12.30;86.60;;;;;;5070591;28;20714;-52
2021/04/20 07:03:51;;;;;;;23.13;20.73;;;12.50;85.90;;;;;;5070574;28;20621;-52
2021/04/20 07:06:21;;;;;;;23.00;20.80;;;12.70;85.20;;;;;;5070170;28;21273;-51
2021/04/20 07:08:53;;;;;;;22.57;19.90;;;12.80;84.20;;;;;;5069859;28;20695;-52
2021/04/20 07:11:20;;;;;;;21.50;19.30;;;13.00;83.30;;;;;;5070194;28;20706;-52
2021/04/20 07:13:48;;;;;;;21.80;19.63;;;13.20;83.00;;;;;;5070989;28;20738;-52
2021/04/20 07:16:23;;;;;;;23.73;21.37;;;13.40;82.70;;;;;;5070840;28;20641;-52
2021/04/20 07:19:20;;;;;;;21.70;19.60;;;13.50;81.70;;;;;;5070386;28;20621;-52
2021/04/20 07:22:02;;;;;;;22.43;20.13;;;13.70;80.60;;;;;;5033402;28;20715;-53
2021/04/20 07:24:31;;;;;;;22.60;20.50;;;13.80;79.90;;;;;;5068762;28;20617;-52
2021/04/20 07:27:15;;;;;;;20.53;18.70;;;13.90;79.60;;;;;;5070454;28;20686;-52
2021/04/20 07:29:49;;;;;;;24.00;20.03;;;14.10;79.60;;;;;;5055627;28;21189;-52
2021/04/20 07:32:27;;;;;;;24.27;21.77;;;14.30;79.20;;;;;;5069374;28;20711;-52
2021/04/20 07:35:09;;;;;;;24.70;22.33;;;14.50;78.20;;;;;;5069364;28;20624;-52
2021/04/20 07:37:41;;;;;;;26.03;23.53;;;14.60;77.30;;;;;;5079312;28;21278;-52
2021/04/20 07:40:23;;;;;;;25.57;23.17;;;14.80;76.30;;;;;;5069845;28;20629;-52
2021/04/20 07:43:11;;;;;;;24.87;22.47;;;15.00;74.90;;;;;;5072226;28;20625;-51
2021/04/20 07:45:42;;;;;;;25.90;23.30;;;15.10;73.90;;;;;;5070244;28;20656;-51
2021/04/20 07:48:11;;;;;;;28.90;26.10;;;15.20;73.50;;;;;;5070149;28;20683;-51
2021/04/20 07:50:42;;;;;;;28.43;25.33;;;15.40;73.00;;;;;;5073617;28;21301;-53
2021/04/20 07:53:16;;;;;;;30.87;27.33;;;15.50;73.00;;;;;;5074214;28;20620;-53
2021/04/20 07:55:46;;;;;;;32.87;29.73;;;15.60;72.20;;;;;;5073898;28;20659;-52
2021/04/20 07:58:13;;;;;;;32.53;29.53;;;15.60;71.90;;;;;;5073775;28;20651;-53
2021/04/20 08:00:42;;;;;;;32.83;29.33;;;15.60;72.00;;;;;;5074284;28;20652;-52
2021/04/20 08:03:14;;;;;;;33.10;29.60;;;15.60;71.30;;;;;;5072972;28;21038;-53
2021/04/20 08:05:42;;;;;;;31.57;28.37;;;15.70;70.90;;;;;;5073854;28;20683;-52
2021/04/20 08:08:14;;;;;;;36.17;32.57;;;15.90;71.10;;;;;;5051163;28;20724;-53
2021/04/20 08:10:43;;;;;;;32.87;29.37;;;16.00;71.40;;;;;;5068617;28;20653;-52
2021/04/20 08:13:14;;;;;;;32.87;29.53;;;16.20;70.00;;;;;;5073932;28;20624;-52
2021/04/20 08:15:42;;;;;;;34.93;31.40;;;16.40;69.50;;;;;;5068953;28;20641;-53
2021/04/20 08:18:13;;;;;;;34.20;30.83;;;16.40;68.90;;;;;;5070552;28;20617;-53
2021/04/20 08:20:40;;;;;;;41.80;32.30;;;16.60;68.60;;;;;;5072767;28;20656;-53
2021/04/20 08:23:07;;;;;;;33.17;29.57;;;16.70;67.70;;;;;;5070726;28;21190;-52
2021/04/20 08:25:38;;;;;;;31.77;28.87;;;16.80;67.30;;;;;;5072920;28;20621;-52
2021/04/20 08:28:08;;;;;;;31.47;28.17;;;16.80;66.60;;;;;;5072727;28;21169;-52
2021/04/20 08:30:37;;;;;;;29.20;26.30;;;16.90;66.20;;;;;;5072757;28;20835;-52
2021/04/20 08:33:07;;;;;;;31.17;28.30;;;16.80;65.90;;;;;;5073104;28;20640;-53
2021/04/20 08:35:34;;;;;;;32.60;29.07;;;16.70;66.30;;;;;;5071911;28;21199;-53
2021/04/20 08:38:18;;;;;;;33.30;30.00;;;16.80;66.80;;;;;;5072387;28;20633;-53
2021/04/20 08:40:47;;;;;;;32.33;28.37;;;16.70;65.40;;;;;;5072841;28;20652;-53
2021/04/20 08:43:26;;;;;;;36.00;28.43;;;16.50;66.00;;;;;;5073086;28;20678;-53
2021/04/20 08:45:57;;;;;;;33.10;29.80;;;16.30;66.50;;;;;;5072812;28;20678;-53
2021/04/20 08:48:42;;;;;;;30.30;27.60;;;16.20;67.70;;;;;;5072476;28;20679;-53
2021/04/20 08:51:13;;;;;;;33.00;29.80;;;16.40;68.00;;;;;;5073018;28;20730;-53
2021/04/20 08:53:45;;;;;;;34.37;30.77;;;16.50;67.20;;;;;;5061908;28;21235;-53
2021/04/20 08:56:20;;;;;;;31.90;28.60;;;16.60;66.60;;;;;;5073032;28;20941;-53
2021/04/20 08:59:08;;;;;;;31.00;28.10;;;16.80;66.10;;;;;;5053946;28;20686;-53
2021/04/20 09:01:42;;;;;;;30.27;27.27;;;16.90;65.40;;;;;;5072899;28;21609;-54
2021/04/20 09:04:14;;;;;;;28.57;25.80;;;17.20;64.30;;;;;;5068035;28;20680;-53
2021/04/20 09:06:47;;;;;;;29.90;27.00;;;17.50;63.20;;;;;;5071106;28;20649;-54
2021/04/20 09:09:14;;;;;;;28.40;25.70;;;17.70;62.00;;;;;;5062803;28;20738;-54
2021/04/20 09:11:45;;;;;;;27.13;24.43;;;17.70;60.20;;;;;;5070736;28;20726;-54
2021/04/20 09:14:13;;;;;;;30.47;27.30;;;17.50;60.40;;;;;;5072625;28;20632;-53
2021/04/20 09:16:44;;;;;;;31.00;27.90;;;17.30;60.90;;;;;;5072089;28;20687;-53
2021/04/20 09:19:12;;;;;;;30.43;27.43;;;17.30;61.50;;;;;;5066282;28;20724;-51
2021/04/20 09:21:42;;;;;;;32.03;28.63;;;17.30;61.10;;;;;;5066597;28;20718;-51
2021/04/20 09:24:13;;;;;;;30.13;27.20;;;17.30;60.40;;;;;;5071511;28;20668;-52
2021/04/20 09:26:45;;;;;;;30.10;27.10;;;17.30;60.00;;;;;;5071973;28;20628;-52
2021/04/20 09:29:14;;;;;;;27.93;24.90;;;17.40;60.20;;;;;;5052477;28;20681;-52
2021/04/20 09:31:46;;;;;;;28.80;25.97;;;17.50;60.10;;;;;;5071631;28;20665;-51
2021/04/20 09:34:12;;;;;;;28.27;25.80;;;17.50;59.00;;;;;;5072058;28;20743;-54
2021/04/20 09:36:40;;;;;;;28.40;25.60;;;17.40;59.20;;;;;;5071778;28;20680;-52
2021/04/20 09:39:07;;;;;;;26.93;23.63;;;17.60;59.20;;;;;;5071625;28;20686;-52
2021/04/20 09:41:36;;;;;;;28.17;25.50;;;17.70;58.70;;;;;;5072138;28;20640;-52
2021/04/20 09:44:17;;;;;;;27.60;24.90;;;17.80;58.40;;;;;;5072373;28;20621;-52
2021/04/20 09:46:53;;;;;;;27.97;24.67;;;18.00;58.10;;;;;;5071937;28;20682;-52
2021/04/20 09:49:28;;;;;;;24.37;22.03;;;18.20;57.40;;;;;;5071395;28;20653;-53
2021/04/20 09:51:59;;;;;;;29.43;26.43;;;18.50;56.50;;;;;;5070785;28;20660;-52
2021/04/20 09:54:28;;;;;;;28.03;25.43;;;18.60;55.20;;;;;;5072271;28;20679;-53
2021/04/20 09:56:55;;;;;;;26.70;24.17;;;18.60;55.40;;;;;;5071795;28;21027;-53
2021/04/20 09:59:25;;;;;;;24.63;22.23;;;18.90;55.70;;;;;;5071442;28;20710;-52
2021/04/20 10:01:57;;;;;;;24.63;22.40;;;19.20;54.10;;;;;;5071432;28;20719;-52
2021/04/20 10:04:38;;;;;;;22.40;20.30;;;19.50;51.80;;;;;;5070767;28;20650;-52
2021/04/20 10:07:19;;;;;;;18.70;16.70;;;19.80;51.10;;;;;;5071545;28;20613;-52
2021/04/20 10:09:48;;;;;;;23.70;21.43;;;20.10;49.30;;;;;;5071662;28;20676;-52
2021/04/20 10:12:25;;;;;;;19.70;18.03;;;20.30;48.60;;;;;;5061166;28;20690;-52
2021/04/20 10:15:03;;;;;;;19.40;17.57;;;20.50;47.60;;;;;;5071377;28;20767;-51
2021/04/20 10:17:32;;;;;;;18.27;16.67;;;20.80;46.30;;;;;;5070044;28;20683;-51
2021/04/20 10:20:06;;;;;;;18.03;16.53;;;21.20;45.60;;;;;;5070940;28;20629;-52
2021/04/20 10:22:36;;;;;;;16.60;15.03;;;21.70;45.10;;;;;;5064072;28;21048;-53
2021/04/20 10:25:10;;;;;;;17.97;16.47;;;22.00;43.60;;;;;;5070680;28;20675;-53
2021/04/20 10:27:37;;;;;;;20.37;18.60;;;22.30;43.10;;;;;;5068824;28;20702;-53
2021/04/20 10:30:11;;;;;;;17.07;15.47;;;22.60;42.20;;;;;;5070610;28;20633;-53
2021/04/20 10:32:40;;;;;;;19.40;17.73;;;22.80;40.60;;;;;;5070267;28;20661;-53
2021/04/20 10:35:12;;;;;;;17.40;15.80;;;22.50;40.60;;;;;;5070613;28;20709;-54
2021/04/20 10:37:40;;;;;;;16.27;14.87;;;22.40;41.00;;;;;;5069910;28;20617;-54
2021/04/20 10:40:08;;;;;;;16.40;14.93;;;22.50;41.00;;;;;;5071358;28;20963;-54
2021/04/20 10:42:36;;;;;;;16.67;15.07;;;22.60;40.50;;;;;;5070850;28;20645;-54
2021/04/20 10:45:03;;;;;;;17.73;16.03;;;22.40;40.30;;;;;;5070885;28;21272;-54
2021/04/20 10:47:31;;;;;;;17.40;15.80;;;22.10;40.20;;;;;;5070800;28;20655;-52
2021/04/20 10:49:59;;;;;;;18.30;16.43;;;21.80;40.40;;;;;;5053085;28;20661;-52
2021/04/20 10:52:29;;;;;;;15.30;13.80;;;21.40;40.40;;;;;;5070335;28;20734;-52
2021/04/20 10:54:56;;;;;;;17.33;15.80;;;21.00;40.40;;;;;;5071011;28;20625;-52
2021/04/20 10:57:22;;;;;;;18.57;16.87;;;20.50;40.90;;;;;;5070409;28;20748;-52
2021/04/20 10:59:52;;;;;;;17.67;15.90;;;20.20;41.20;;;;;;5069926;28;20628;-53
2021/04/20 11:02:19;;;;;;;16.90;15.30;;;19.90;41.60;;;;;;5050955;28;21105;-52
2021/04/20 11:04:48;;;;;;;16.37;14.77;;;19.70;42.10;;;;;;5050959;28;20634;-53
2021/04/20 11:07:26;;;;;;;16.57;14.97;;;19.60;42.80;;;;;;5057703;28;20625;-53
2021/04/20 11:09:57;;;;;;;17.30;15.57;;;19.70;42.60;;;;;;5070988;28;20657;-53
2021/04/20 11:12:24;;;;;;;17.43;15.73;;;19.80;42.40;;;;;;5070082;28;20718;-52
2021/04/20 11:14:52;;;;;;;15.43;14.00;;;20.10;42.60;;;;;;5070432;28;20637;-53
2021/04/20 11:17:23;;;;;;;16.10;14.70;;;20.40;42.20;;;;;;5053543;28;20630;-53
2021/04/20 11:19:53;;;;;;;15.03;13.63;;;20.60;41.50;;;;;;5050253;28;20630;-54
2021/04/20 11:22:20;;;;;;;17.03;15.23;;;20.90;41.50;;;;;;5069797;28;21255;-54
2021/04/20 11:24:54;;;;;;;15.83;14.33;;;21.30;40.80;;;;;;5070268;28;20720;-54
2021/04/20 11:27:23;;;;;;;14.67;13.27;;;21.80;40.20;;;;;;5070826;28;20633;-53
2021/04/20 11:29:58;;;;;;;15.17;13.60;;;22.30;38.90;;;;;;5070592;28;20657;-53
2021/04/20 11:32:25;;;;;;;15.57;14.23;;;22.70;38.10;;;;;;5070156;28;20749;-53
2021/04/20 11:34:56;;;;;;;14.33;13.03;;;22.90;36.70;;;;;;5069833;28;21247;-53
2021/04/20 11:37:23;;;;;;;15.53;14.13;;;22.70;36.70;;;;;;5069824;28;20616;-54
2021/04/20 11:39:53;;;;;;;15.20;13.80;;;22.60;37.00;;;;;;5070083;28;20632;-53
2021/04/20 11:42:24;;;;;;;14.47;13.13;;;22.70;36.90;;;;;;5070148;28;20706;-53
2021/04/20 11:44:52;;;;;;;15.27;13.97;;;22.70;37.00;;;;;;5069804;28;21232;-53
2021/04/20 11:47:19;;;;;;;13.93;12.73;;;22.40;36.40;;;;;;5070059;28;20674;-54
2021/04/20 11:49:48;;;;;;;14.47;13.17;;;22.20;36.70;;;;;;5069451;28;20708;-53
2021/04/20 11:52:16;;;;;;;14.33;12.93;;;22.20;36.30;;;;;;5051925;28;21248;-53
2021/04/20 11:54:43;;;;;;;16.27;14.77;;;22.30;36.70;;;;;;5070665;28;20633;-52
2021/04/20 11:57:10;;;;;;;20.53;14.70;;;22.40;36.20;;;;;;5069360;28;20621;-53
2021/04/20 11:59:37;;;;;;;22.70;15.10;;;22.50;35.70;;;;;;5069411;28;20655;-51
2021/04/20 12:02:04;;;;;;;14.50;13.00;;;22.60;35.60;;;;;;5049917;28;21252;-51
2021/04/20 12:04:33;;;;;;;15.27;13.87;;;22.50;35.70;;;;;;5032189;28;20653;-51
2021/04/20 12:07:00;;;;;;;14.53;13.20;;;22.30;36.10;;;;;;5067442;28;20637;-51
2021/04/20 12:09:32;;;;;;;15.03;13.70;;;22.30;35.80;;;;;;5069672;28;20690;-53
2021/04/20 12:11:59;;;;;;;14.53;13.13;;;22.30;35.70;;;;;;5070747;28;20655;-53
2021/04/20 12:14:27;;;;;;;16.17;14.47;;;22.50;35.60;;;;;;5070409;28;20675;-54
2021/04/20 12:16:55;;;;;;;13.13;12.03;;;22.40;35.20;;;;;;5062144;28;21227;-53
2021/04/20 12:19:24;;;;;;;13.10;12.00;;;22.30;35.50;;;;;;5070389;28;21057;-55
2021/04/20 12:21:54;;;;;;;14.13;12.93;;;22.60;35.10;;;;;;5070027;28;20653;-53
2021/04/20 12:24:22;;;;;;;12.97;11.87;;;22.90;34.40;;;;;;5069610;28;20621;-54
2021/04/20 12:26:50;;;;;;;13.90;12.60;;;23.10;33.80;;;;;;5069609;28;20625;-53
2021/04/20 12:29:19;;;;;;;14.67;13.37;;;23.30;33.80;;;;;;5055092;28;21675;-53
2021/04/20 12:31:46;;;;;;;14.80;13.23;;;23.60;34.00;;;;;;5072354;28;20664;-53
2021/04/20 12:34:13;;;;;;;14.50;13.20;;;23.80;32.80;;;;;;5073330;28;20670;-53
2021/04/20 12:36:42;;;;;;;14.00;12.80;;;23.90;32.80;;;;;;5072749;28;20714;-53
2021/04/20 12:39:10;;;;;;;13.67;12.47;;;23.90;32.70;;;;;;5070595;28;21230;-53
2021/04/20 12:41:37;;;;;;;14.23;13.03;;;23.70;32.40;;;;;;5071727;28;20660;-52